createdAt,value
2019-03-15T00:00:31.497Z,6.90
2019-03-15T00:03:00.270Z,6.90
2019-03-15T00:05:29.049Z,6.90
2019-03-15T00:07:57.773Z,6.90
2019-03-15T00:10:26.472Z,6.90
2019-03-15T00:12:55.420Z,6.90
2019-03-15T00:15:24.119Z,6.90
2019-03-15T00:17:52.790Z,6.90
2019-03-15T00:20:21.673Z,6.90
2019-03-15T00:22:50.412Z,6.90
2019-03-15T00:25:19.200Z,6.90
2019-03-15T00:27:47.885Z,6.90
2019-03-15T00:30:16.615Z,7.00
2019-03-15T00:32:45.352Z,6.90
2019-03-15T00:35:14.043Z,6.90
2019-03-15T00:37:42.792Z,7.00
2019-03-15T00:40:13.586Z,7.00
2019-03-15T00:42:42.444Z,7.00
2019-03-15T00:45:11.236Z,7.00
2019-03-15T00:47:40.062Z,7.00
2019-03-15T00:50:09.636Z,7.00
2019-03-15T00:52:38.380Z,7.00
2019-03-15T00:55:07.586Z,7.00
2019-03-15T00:57:36.444Z,7.00
2019-03-15T01:00:06.853Z,7.00
2019-03-15T01:02:36.592Z,7.00
2019-03-15T01:05:05.726Z,7.00
2019-03-15T01:07:34.475Z,7.00
2019-03-15T01:10:03.256Z,7.00
2019-03-15T01:12:32.052Z,7.00
2019-03-15T01:15:09.576Z,7.00
2019-03-15T01:17:38.287Z,7.00
2019-03-15T01:20:07.075Z,7.00
2019-03-15T01:22:35.857Z,7.00
2019-03-15T01:25:04.606Z,7.00
2019-03-15T01:27:33.297Z,7.00
2019-03-15T01:30:02.086Z,6.90
2019-03-15T01:32:30.850Z,7.00
2019-03-15T01:34:59.558Z,7.00
2019-03-15T01:37:28.295Z,7.00
2019-03-15T01:39:57.023Z,7.00
2019-03-15T01:42:25.816Z,7.00
2019-03-15T01:44:54.512Z,7.00
2019-03-15T01:47:23.198Z,7.00
2019-03-15T01:49:51.939Z,7.00
2019-03-15T01:52:20.649Z,6.90
2019-03-15T01:54:49.470Z,7.00
2019-03-15T01:57:18.329Z,6.90
2019-03-15T01:59:47.105Z,6.90
2019-03-15T02:02:15.899Z,6.90
2019-03-15T02:04:44.621Z,6.90
2019-03-15T02:07:13.324Z,6.90
2019-03-15T02:09:42.047Z,6.90
2019-03-15T02:12:10.782Z,7.00
2019-03-15T02:14:39.530Z,7.00
2019-03-15T02:17:08.245Z,7.10
2019-03-15T02:19:37.008Z,7.00
2019-03-15T02:22:05.764Z,7.00
2019-03-15T02:24:34.484Z,7.00
2019-03-15T02:27:03.235Z,7.00
2019-03-15T02:29:31.902Z,7.00
2019-03-15T02:32:00.639Z,7.00
2019-03-15T02:34:29.292Z,7.00
2019-03-15T02:36:58.084Z,7.00
2019-03-15T02:39:26.803Z,6.90
2019-03-15T02:41:55.712Z,7.00
2019-03-15T02:44:24.663Z,7.00
2019-03-15T02:46:53.483Z,7.00
2019-03-15T02:49:22.277Z,7.00
2019-03-15T02:51:50.988Z,7.00
2019-03-15T02:54:19.735Z,7.00
2019-03-15T02:56:48.432Z,7.00
2019-03-15T02:59:17.222Z,7.00
2019-03-15T03:01:45.892Z,7.00
2019-03-15T03:04:14.614Z,7.00
2019-03-15T03:06:43.291Z,7.00
2019-03-15T03:09:12.034Z,7.00
2019-03-15T03:11:40.753Z,7.00
2019-03-15T03:14:09.546Z,7.00
2019-03-15T03:16:38.248Z,7.00
2019-03-15T03:19:06.951Z,7.00
2019-03-15T03:21:35.695Z,7.00
2019-03-15T03:24:04.440Z,7.00
2019-03-15T03:26:33.209Z,7.00
2019-03-15T03:29:01.929Z,7.00
2019-03-15T03:31:30.736Z,7.10
2019-03-15T03:33:59.512Z,7.10
2019-03-15T03:36:28.368Z,7.10
2019-03-15T03:38:57.137Z,7.10
2019-03-15T03:41:25.895Z,7.10
2019-03-15T03:43:54.655Z,7.10
2019-03-15T03:46:23.405Z,7.20
2019-03-15T03:48:52.099Z,7.20
2019-03-15T03:51:20.779Z,7.20
2019-03-15T03:53:49.505Z,7.20
2019-03-15T03:56:18.234Z,7.20
2019-03-15T03:58:46.982Z,7.20
2019-03-15T04:01:15.691Z,7.20
2019-03-15T04:03:44.367Z,7.20
2019-03-15T04:06:13.051Z,7.20
2019-03-15T04:08:41.754Z,7.20
2019-03-15T04:11:10.454Z,7.20
2019-03-15T04:13:39.140Z,7.20
2019-03-15T04:16:07.841Z,7.20
2019-03-15T04:18:36.584Z,7.20
2019-03-15T04:21:05.350Z,7.20
2019-03-15T04:23:34.068Z,7.20
2019-03-15T04:26:02.785Z,7.20
2019-03-15T04:28:31.499Z,7.20
2019-03-15T04:31:00.268Z,7.20
2019-03-15T04:33:29.093Z,7.20
2019-03-15T04:35:57.840Z,7.20
2019-03-15T04:38:26.569Z,7.20
2019-03-15T04:40:55.349Z,7.20
2019-03-15T04:43:24.067Z,7.20
2019-03-15T04:45:52.735Z,7.30
2019-03-15T04:48:21.490Z,7.30
2019-03-15T04:50:50.174Z,7.30
2019-03-15T04:53:18.883Z,7.30
2019-03-15T04:55:47.702Z,7.30
2019-03-15T04:58:16.426Z,7.40
2019-03-15T05:00:45.245Z,7.40
2019-03-15T05:03:13.951Z,7.30
2019-03-15T05:05:42.874Z,7.30
2019-03-15T05:08:11.637Z,7.30
2019-03-15T05:10:40.670Z,7.30
2019-03-15T05:13:09.404Z,7.40
2019-03-15T05:15:38.095Z,7.30
2019-03-15T05:18:06.900Z,7.30
2019-03-15T05:20:35.622Z,7.30
2019-03-15T05:23:04.717Z,7.30
2019-03-15T05:25:33.582Z,7.30
2019-03-15T05:28:02.354Z,7.40
2019-03-15T05:30:31.132Z,7.40
2019-03-15T05:32:59.816Z,7.40
2019-03-15T05:35:28.514Z,7.40
2019-03-15T05:37:57.210Z,7.40
2019-03-15T05:40:25.883Z,7.40
2019-03-15T05:42:54.623Z,7.40
2019-03-15T05:45:23.338Z,7.40
2019-03-15T05:47:52.002Z,7.40
2019-03-15T05:50:20.826Z,7.40
2019-03-15T05:52:49.535Z,7.40
2019-03-15T05:55:18.224Z,7.40
2019-03-15T05:57:46.918Z,7.40
2019-03-15T06:00:15.654Z,7.40
2019-03-15T06:02:44.347Z,7.40
2019-03-15T06:05:13.164Z,7.40
2019-03-15T06:07:41.945Z,7.40
2019-03-15T06:10:10.919Z,7.40
2019-03-15T06:12:39.741Z,7.40
2019-03-15T06:15:08.528Z,7.40
2019-03-15T06:17:37.270Z,7.40
2019-03-15T06:20:06.559Z,7.50
2019-03-15T06:22:35.437Z,7.40
2019-03-15T06:25:04.431Z,7.40
2019-03-15T06:27:33.130Z,7.50
2019-03-15T06:30:01.893Z,7.50
2019-03-15T06:32:30.603Z,7.50
2019-03-15T06:34:59.358Z,7.50
2019-03-15T06:37:28.062Z,7.60
2019-03-15T06:39:56.782Z,7.60
2019-03-15T06:42:25.525Z,7.50
2019-03-15T06:44:58.220Z,7.50
2019-03-15T06:47:24.662Z,7.50
2019-03-15T06:49:53.411Z,7.50
2019-03-15T06:52:22.167Z,7.60
2019-03-15T06:54:50.929Z,7.60
2019-03-15T06:57:19.717Z,7.60
2019-03-15T06:59:48.505Z,7.60
2019-03-15T07:02:17.219Z,7.60
2019-03-15T07:04:45.911Z,7.70
2019-03-15T07:07:15.278Z,7.70
2019-03-15T07:09:44.215Z,7.70
2019-03-15T07:12:12.872Z,7.70
2019-03-15T07:14:42.387Z,7.70
2019-03-15T07:17:11.303Z,7.70
2019-03-15T07:19:40.010Z,7.70
2019-03-15T07:22:08.714Z,7.70
2019-03-15T07:24:37.380Z,7.80
2019-03-15T07:27:12.966Z,7.80
2019-03-15T07:29:36.650Z,7.80
2019-03-15T07:32:05.372Z,7.80
2019-03-15T07:34:34.087Z,7.80
2019-03-15T07:37:02.758Z,7.80
2019-03-15T07:39:31.447Z,7.80
2019-03-15T07:42:00.133Z,7.80
2019-03-15T07:44:28.892Z,7.70
2019-03-15T07:46:57.601Z,7.80
2019-03-15T07:49:26.349Z,7.80
2019-03-15T07:51:55.086Z,7.80
2019-03-15T07:54:23.863Z,7.80
2019-03-15T07:56:52.668Z,7.70
2019-03-15T07:59:21.385Z,7.70
2019-03-15T08:01:52.671Z,7.80
2019-03-15T08:04:20.525Z,7.80
2019-03-15T08:06:49.239Z,7.80
2019-03-15T08:09:17.986Z,7.70
2019-03-15T08:11:46.659Z,7.80
2019-03-15T08:14:15.406Z,7.80
2019-03-15T08:16:44.130Z,7.80
2019-03-15T08:19:12.815Z,7.80
2019-03-15T08:21:41.542Z,7.80
2019-03-15T08:24:10.248Z,7.80
2019-03-15T08:26:38.946Z,7.80
2019-03-15T08:29:09.684Z,7.80
2019-03-15T08:31:38.194Z,7.80
2019-03-15T08:34:06.919Z,7.80
2019-03-15T08:36:35.603Z,7.80
2019-03-15T08:39:05.262Z,7.80
2019-03-15T08:41:33.977Z,7.70
2019-03-15T08:44:02.713Z,7.70
2019-03-15T08:46:31.435Z,7.80
2019-03-15T08:49:00.242Z,7.70
2019-03-15T08:51:29.001Z,7.80
2019-03-15T08:53:57.771Z,7.80
2019-03-15T08:56:26.470Z,7.80
2019-03-15T08:58:55.225Z,7.80
2019-03-15T09:01:24.118Z,7.80
2019-03-15T09:03:52.867Z,7.80
2019-03-15T09:06:21.558Z,7.70
2019-03-15T09:08:50.281Z,7.90
2019-03-15T09:11:19.084Z,7.90
2019-03-15T09:13:49.127Z,7.90
2019-03-15T09:16:18.152Z,7.90
2019-03-15T09:18:46.873Z,8.00
2019-03-15T09:21:15.570Z,8.00
2019-03-15T09:23:44.289Z,8.00
2019-03-15T09:26:13.051Z,8.10
2019-03-15T09:28:41.772Z,8.00
2019-03-15T09:31:10.448Z,8.10
2019-03-15T09:33:39.230Z,8.00
2019-03-15T09:36:07.918Z,8.00
2019-03-15T09:38:36.604Z,8.10
2019-03-15T09:41:05.516Z,8.10
2019-03-15T09:43:34.258Z,8.20
2019-03-15T09:46:02.953Z,8.30
2019-03-15T09:48:31.642Z,8.20
2019-03-15T09:51:00.333Z,8.20
2019-03-15T09:53:29.026Z,8.10
2019-03-15T09:55:57.827Z,8.30
2019-03-15T09:58:26.530Z,8.30
2019-03-15T10:00:55.492Z,8.40
2019-03-15T10:03:24.324Z,8.40
2019-03-15T10:05:53.038Z,8.50
2019-03-15T10:08:23.740Z,8.60
2019-03-15T10:10:52.421Z,8.60
2019-03-15T10:13:21.143Z,8.60
2019-03-15T10:15:50.073Z,8.70
2019-03-15T10:18:18.995Z,8.80
2019-03-15T10:20:47.762Z,8.80
2019-03-15T10:23:16.454Z,8.80
2019-03-15T10:25:47.528Z,8.80
2019-03-15T10:28:15.592Z,8.80
2019-03-15T10:30:44.388Z,8.80
2019-03-15T10:33:13.320Z,8.90
2019-03-15T10:35:41.977Z,9.00
2019-03-15T10:38:10.766Z,9.00
2019-03-15T10:40:39.486Z,9.10
2019-03-15T10:43:08.186Z,9.10
2019-03-15T10:45:36.874Z,9.20
2019-03-15T10:48:08.030Z,9.30
2019-03-15T10:50:36.325Z,9.40
2019-03-15T10:53:05.072Z,9.40
2019-03-15T10:55:33.735Z,9.60
2019-03-15T10:58:02.479Z,9.60
2019-03-15T11:00:31.595Z,9.70
2019-03-15T11:03:00.310Z,9.80
2019-03-15T11:05:29.019Z,9.80
2019-03-15T11:07:57.695Z,9.90
2019-03-15T11:10:26.438Z,10.00
2019-03-15T11:12:55.216Z,10.00
2019-03-15T11:15:23.964Z,10.10
2019-03-15T11:17:52.692Z,10.20
2019-03-15T11:20:21.387Z,10.40
2019-03-15T11:22:50.062Z,10.50
2019-03-15T11:25:18.900Z,10.70
2019-03-15T11:27:47.587Z,10.90
2019-03-15T11:30:16.294Z,11.00
2019-03-15T11:32:45.315Z,11.00
2019-03-15T11:35:14.105Z,11.00
2019-03-15T11:37:42.810Z,11.10
2019-03-15T11:40:13.889Z,11.20
2019-03-15T11:42:41.941Z,11.20
2019-03-15T11:45:10.831Z,11.30
2019-03-15T11:48:00.560Z,11.40
2019-03-15T11:50:10.066Z,11.60
2019-03-15T11:52:38.755Z,11.70
2019-03-15T11:55:08.240Z,11.90
2019-03-15T11:57:36.946Z,12.10
2019-03-15T12:00:05.898Z,12.40
2019-03-15T12:02:34.708Z,12.50
2019-03-15T12:05:03.412Z,12.70
2019-03-15T12:07:32.230Z,12.80
2019-03-15T12:10:00.948Z,12.70
2019-03-15T12:12:29.676Z,12.80
2019-03-15T12:14:58.358Z,12.80
2019-03-15T12:17:27.054Z,12.90
2019-03-15T12:19:55.793Z,12.90
2019-03-15T12:22:24.535Z,12.80
2019-03-15T12:24:53.334Z,12.80
2019-03-15T12:27:22.041Z,12.70
2019-03-15T12:29:50.820Z,12.60
2019-03-15T12:32:19.560Z,12.50
2019-03-15T12:34:48.387Z,12.40
2019-03-15T12:37:17.209Z,12.30
2019-03-15T12:39:45.993Z,12.20
2019-03-15T12:42:14.783Z,12.20
2019-03-15T12:44:43.582Z,12.20
2019-03-15T12:47:12.361Z,12.20
2019-03-15T12:49:41.116Z,12.20
2019-03-15T12:52:09.888Z,12.20
2019-03-15T12:54:38.623Z,12.30
2019-03-15T12:57:07.436Z,12.20
2019-03-15T12:59:36.252Z,12.20
2019-03-15T13:02:04.996Z,12.30
2019-03-15T13:04:33.667Z,12.30
2019-03-15T13:07:02.322Z,12.30
2019-03-15T13:09:31.027Z,12.40
2019-03-15T13:11:59.730Z,12.30
2019-03-15T13:14:28.401Z,12.10
2019-03-15T13:16:57.146Z,12.10
2019-03-15T13:19:25.936Z,12.00
2019-03-15T13:21:55.843Z,12.00
2019-03-15T13:24:24.580Z,12.00
2019-03-15T13:27:06.635Z,12.00
2019-03-15T13:29:23.888Z,12.00
2019-03-15T13:31:52.776Z,12.10
2019-03-15T13:34:21.533Z,12.20
2019-03-15T13:36:50.436Z,12.20
2019-03-15T13:39:19.139Z,12.30
2019-03-15T13:41:47.901Z,12.50
2019-03-15T13:44:16.659Z,12.50
2019-03-15T13:46:45.495Z,12.70
2019-03-15T13:49:14.282Z,12.80
2019-03-15T13:51:43.116Z,12.80
2019-03-15T13:54:11.852Z,12.90
2019-03-15T13:56:40.735Z,12.80
2019-03-15T13:59:09.727Z,12.80
2019-03-15T14:01:38.428Z,12.80
2019-03-15T14:04:07.092Z,12.80
2019-03-15T14:06:35.844Z,12.80
2019-03-15T14:09:06.493Z,12.80
2019-03-15T14:11:35.356Z,12.70
2019-03-15T14:14:04.126Z,12.60
2019-03-15T14:16:32.789Z,12.50
2019-03-15T14:19:01.499Z,12.50
2019-03-15T14:21:30.250Z,12.40
2019-03-15T14:23:58.943Z,12.40
2019-03-15T14:26:27.729Z,12.40
2019-03-15T14:28:56.525Z,12.40
2019-03-15T14:31:25.207Z,12.40
2019-03-15T14:33:53.890Z,12.30
2019-03-15T14:36:22.604Z,11.50
2019-03-15T14:38:51.388Z,10.50
2019-03-15T14:41:20.396Z,10.00
2019-03-15T14:43:49.227Z,9.80
2019-03-15T14:46:18.145Z,9.70
2019-03-15T14:48:46.824Z,9.60
2019-03-15T14:51:15.503Z,9.60
2019-03-15T14:53:44.266Z,9.50
2019-03-15T14:56:12.939Z,9.40
2019-03-15T14:58:41.673Z,9.40
2019-03-15T15:01:10.393Z,9.40
2019-03-15T15:03:39.145Z,9.40
2019-03-15T15:06:07.884Z,9.40
2019-03-15T15:08:36.625Z,9.40
2019-03-15T15:11:05.377Z,9.40
2019-03-15T15:13:34.054Z,9.40
2019-03-15T15:16:03.046Z,9.40
2019-03-15T15:18:31.830Z,9.40
2019-03-15T15:21:00.566Z,9.50
2019-03-15T15:23:29.243Z,9.50
2019-03-15T15:26:03.374Z,9.50
2019-03-15T15:28:32.305Z,9.50
2019-03-15T15:31:01.127Z,9.50
2019-03-15T15:33:29.849Z,9.60
2019-03-15T15:35:58.716Z,9.60
2019-03-15T15:38:27.492Z,9.60
2019-03-15T15:40:56.352Z,9.60
2019-03-15T15:43:25.046Z,9.60
2019-03-15T15:45:53.715Z,9.60
2019-03-15T15:48:22.485Z,9.70
2019-03-15T15:50:51.268Z,9.60
2019-03-15T15:53:20.077Z,9.60
2019-03-15T15:55:48.783Z,9.60
2019-03-15T15:58:18.440Z,9.60
2019-03-15T16:00:47.365Z,9.60
2019-03-15T16:03:16.283Z,9.70
2019-03-15T16:05:45.113Z,9.70
2019-03-15T16:08:13.903Z,9.70
2019-03-15T16:10:43.528Z,9.70
2019-03-15T16:13:17.172Z,9.80
2019-03-15T16:15:42.895Z,9.80
2019-03-15T16:18:11.616Z,9.90
2019-03-15T16:20:40.408Z,9.90
2019-03-15T16:23:09.133Z,9.90
2019-03-15T16:25:37.832Z,9.90
2019-03-15T16:28:06.574Z,9.90
2019-03-15T16:30:35.388Z,9.90
2019-03-15T16:33:04.158Z,10.00
2019-03-15T16:35:32.849Z,10.00
2019-03-15T16:38:01.608Z,10.00
2019-03-15T16:40:30.310Z,10.00
2019-03-15T16:42:59.088Z,10.00
2019-03-15T16:45:27.909Z,10.10
2019-03-15T16:47:56.622Z,10.10
2019-03-15T16:50:25.329Z,10.10
2019-03-15T16:52:53.997Z,10.10
2019-03-15T16:55:22.799Z,10.20
2019-03-15T16:57:51.502Z,10.20
2019-03-15T17:00:20.280Z,10.20
2019-03-15T17:02:48.985Z,10.20
2019-03-15T17:05:17.678Z,10.20
2019-03-15T17:07:46.547Z,10.20
2019-03-15T17:10:15.268Z,10.20
2019-03-15T17:12:44.041Z,10.20
2019-03-15T17:15:13.016Z,10.20
2019-03-15T17:17:42.044Z,10.20
2019-03-15T17:20:11.076Z,10.30
2019-03-15T17:22:39.876Z,10.30
2019-03-15T17:25:09.115Z,10.30
2019-03-15T17:27:37.854Z,10.30
2019-03-15T17:30:08.306Z,10.20
2019-03-15T17:32:37.009Z,10.20
2019-03-15T17:35:06.115Z,10.20
2019-03-15T17:37:34.851Z,10.20
2019-03-15T17:40:03.767Z,10.20
2019-03-15T17:42:32.586Z,10.20
2019-03-15T17:45:01.387Z,10.10
2019-03-15T17:47:30.102Z,10.10
2019-03-15T17:49:58.832Z,10.10
2019-03-15T17:52:27.514Z,10.10
2019-03-15T17:54:56.213Z,10.00
2019-03-15T17:57:24.912Z,10.00
2019-03-15T18:00:14.697Z,10.00
2019-03-15T18:02:43.497Z,9.90
2019-03-15T18:05:12.191Z,9.90
2019-03-15T18:07:40.925Z,9.90
2019-03-15T18:10:09.806Z,9.90
2019-03-15T18:12:38.548Z,9.90
2019-03-15T18:15:07.457Z,9.80
2019-03-15T18:17:36.156Z,9.80
2019-03-15T18:20:04.918Z,9.70
2019-03-15T18:22:36.057Z,9.70
2019-03-15T18:25:06.184Z,9.60
2019-03-15T18:27:34.955Z,9.70
2019-03-15T18:30:03.673Z,9.60
2019-03-15T18:32:32.383Z,9.50
2019-03-15T18:35:01.084Z,9.60
2019-03-15T18:37:29.926Z,9.50
2019-03-15T18:39:58.708Z,9.60
2019-03-15T18:42:30.599Z,9.50
2019-03-15T18:44:59.414Z,9.50
2019-03-15T18:47:28.102Z,9.50
2019-03-15T18:49:56.826Z,9.50
2019-03-15T18:52:25.634Z,9.50
2019-03-15T18:54:54.336Z,9.40
2019-03-15T18:57:23.100Z,9.40
2019-03-15T18:59:51.814Z,9.40
2019-03-15T19:02:20.627Z,9.40
2019-03-15T19:04:49.386Z,9.40
2019-03-15T19:07:18.112Z,9.40
2019-03-15T19:09:46.866Z,9.30
2019-03-15T19:12:15.613Z,9.30
2019-03-15T19:14:44.382Z,9.30
2019-03-15T19:17:15.259Z,9.30
2019-03-15T19:19:44.010Z,9.20
2019-03-15T19:22:12.812Z,9.20
2019-03-15T19:24:41.602Z,9.20
2019-03-15T19:27:10.383Z,9.10
2019-03-15T19:29:39.167Z,9.20
2019-03-15T19:32:07.914Z,9.10
2019-03-15T19:34:36.655Z,9.10
2019-03-15T19:37:05.376Z,9.10
2019-03-15T19:39:34.198Z,9.00
2019-03-15T19:42:02.976Z,9.00
2019-03-15T19:44:31.771Z,9.00
2019-03-15T19:47:00.570Z,9.00
2019-03-15T19:49:29.391Z,9.00
2019-03-15T19:51:58.086Z,9.00
2019-03-15T19:54:26.839Z,9.00
2019-03-15T19:56:55.626Z,9.10
2019-03-15T19:59:24.325Z,9.00
2019-03-15T20:01:53.039Z,9.00
2019-03-15T20:04:21.785Z,9.00
2019-03-15T20:06:50.543Z,9.00
2019-03-15T20:09:19.382Z,8.90
2019-03-15T20:11:48.150Z,9.00
2019-03-15T20:14:17.151Z,8.90
2019-03-15T20:16:45.985Z,8.90
2019-03-15T20:19:14.810Z,8.90
2019-03-15T20:21:43.589Z,8.80
2019-03-15T20:24:12.320Z,8.80
2019-03-15T20:26:41.113Z,8.80
2019-03-15T20:29:09.837Z,8.80
2019-03-15T20:31:38.547Z,8.80
2019-03-15T20:34:07.455Z,8.80
2019-03-15T20:36:36.254Z,8.70
2019-03-15T20:39:06.752Z,8.70
2019-03-15T20:41:35.569Z,8.70
2019-03-15T20:44:04.538Z,8.70
2019-03-15T20:46:36.129Z,8.60
2019-03-15T20:49:03.804Z,8.60
2019-03-15T20:51:32.539Z,8.60
2019-03-15T20:54:01.306Z,8.60
2019-03-15T20:56:30.102Z,8.60
2019-03-15T20:58:58.844Z,8.60
2019-03-15T21:01:27.622Z,8.50
2019-03-15T21:03:56.581Z,8.60
2019-03-15T21:06:25.374Z,8.60
2019-03-15T21:08:54.058Z,8.60
2019-03-15T21:11:22.904Z,8.60
2019-03-15T21:13:51.641Z,8.50
2019-03-15T21:16:20.366Z,8.60
2019-03-15T21:18:49.097Z,8.60
2019-03-15T21:21:17.843Z,8.60
2019-03-15T21:23:46.670Z,8.60
2019-03-15T21:26:15.637Z,8.60
2019-03-15T21:28:44.478Z,8.60
2019-03-15T21:31:13.244Z,8.60
2019-03-15T21:33:41.964Z,8.60
2019-03-15T21:36:10.825Z,8.50
2019-03-15T21:38:48.172Z,8.50
2019-03-15T21:41:09.991Z,8.50
2019-03-15T21:43:38.820Z,8.50
2019-03-15T21:46:07.564Z,8.50
2019-03-15T21:48:36.307Z,8.50
2019-03-15T21:51:04.992Z,8.50
2019-03-15T21:53:33.757Z,8.50
2019-03-15T21:56:02.551Z,8.50
2019-03-15T21:58:31.280Z,8.50
2019-03-15T22:01:02.588Z,8.40
2019-03-15T22:03:30.626Z,8.40
2019-03-15T22:05:59.351Z,8.40
2019-03-15T22:08:28.088Z,8.30
2019-03-15T22:10:56.848Z,8.30
2019-03-15T22:13:25.540Z,8.30
2019-03-15T22:15:54.320Z,8.20
2019-03-15T22:18:23.042Z,8.20
2019-03-15T22:20:54.814Z,8.20
2019-03-15T22:23:23.507Z,8.20
2019-03-15T22:25:52.241Z,8.20
2019-03-15T22:28:20.971Z,8.20
2019-03-15T22:30:49.703Z,8.10
2019-03-15T22:33:18.358Z,8.10
2019-03-15T22:35:47.061Z,8.10
2019-03-15T22:38:25.639Z,8.10
2019-03-15T22:40:46.238Z,8.00
2019-03-15T22:43:15.162Z,8.00
2019-03-15T22:45:43.865Z,8.00
2019-03-15T22:48:12.595Z,8.10
2019-03-15T22:50:41.307Z,8.10
2019-03-15T22:53:10.018Z,8.10
2019-03-15T22:55:38.749Z,8.10
2019-03-15T22:58:08.694Z,8.10
2019-03-15T23:00:41.162Z,8.10
2019-03-15T23:03:09.905Z,8.00
2019-03-15T23:05:38.591Z,8.10
2019-03-15T23:08:07.292Z,8.10
2019-03-15T23:10:36.031Z,8.10
2019-03-15T23:13:04.721Z,8.10
2019-03-15T23:15:33.405Z,8.20
2019-03-15T23:18:02.110Z,8.20
2019-03-15T23:20:30.883Z,8.20
2019-03-15T23:22:59.568Z,8.30
2019-03-15T23:25:28.279Z,8.20
2019-03-15T23:27:57.174Z,8.30
2019-03-15T23:30:25.850Z,8.30
2019-03-15T23:32:54.543Z,8.30
2019-03-15T23:35:23.210Z,8.30
2019-03-15T23:37:52.103Z,8.30
2019-03-15T23:40:20.802Z,8.20
2019-03-15T23:42:49.563Z,8.30
2019-03-15T23:45:18.284Z,8.30
2019-03-15T23:47:47.006Z,8.30
2019-03-15T23:50:16.153Z,8.30
2019-03-15T23:52:44.842Z,8.30
2019-03-15T23:55:13.553Z,8.30
2019-03-15T23:57:42.223Z,8.30
